Promitheas — SYIJ — position and weather

sailwx.info

Track history (hours):
 
Tides and Currents Weather Stations Pressure Air Temp Water Temp Dewpoint Dewpoint Depression Visibility Wind Speed Wind Dir Waves Ship Positions

Promitheas

Last reported at 2014-Oct-22 19:31 UTC. Time now 2014-Oct-31 21:33 UTC.
Position N 38°33' E 008°37'.
Warning: this ship's position is 9 days out of date.

Length 249 m; draft 8.2 m.

Type: Tanker. MMSI: 240547000.

Date/timePositionNaut miles runAvg speedWind from/ knotsBaromVisibWave heightAir tempDewpointWater temp
2014-Oct-22 19:31N 38°33' E 008°37'19 9.6
2014-Oct-22 17:32N 38°44' E 008°17'241 9.9
2014-Oct-21 17:08N 41°56' E 005°06'710.3
2014-Oct-21 16:27N 42°02' E 005°01'9 7.0
2014-Oct-21 15:13N 42°10' E 004°56'2 3.2
2014-Oct-21 14:33N 42°12' E 004°56'9 7.9
2014-Oct-21 13:26N 42°20' E 004°54'10 9.4
2014-Oct-21 12:23N 42°30' E 004°51'15 8.4
2014-Oct-21 10:33N 42°45' E 004°47'3 2.9
2014-Oct-21 09:33N 42°48' E 004°48'2 2.4
2014-Oct-21 08:33N 42°50' E 004°49'2 1.8
2014-Oct-21 07:25N 42°52' E 004°50'1 1.2
2014-Oct-21 06:27N 42°53' E 004°52'14 2.2
2014-Oct-21 00:11N 43°05' E 005°01'711.8
2014-Oct-20 23:33N 43°12' E 005°01'1211.9
2014-Oct-20 22:33N 43°24' E 004°56'2 1.9
2014-Oct-20 21:28N 43°25' E 004°53'0 0.0
2014-Oct-20 20:33N 43°25' E 004°53'0 0.0
2014-Oct-20 19:33N 43°25' E 004°53'0 0.0
2014-Oct-20 18:34N 43°25' E 004°53'0 0.0
2014-Oct-20 17:34N 43°25' E 004°53'0 0.0
2014-Oct-20 16:34N 43°25' E 004°53'0 0.0
2014-Oct-20 15:33N 43°25' E 004°53'0 0.0
2014-Oct-20 14:34N 43°25' E 004°53'0 0.0
2014-Oct-20 13:34N 43°25' E 004°53'0 0.0
2014-Oct-20 12:34N 43°25' E 004°53'0 0.0
2014-Oct-20 11:33N 43°25' E 004°53'0 0.0
2014-Oct-20 10:34N 43°25' E 004°53'0 0.0
2014-Oct-20 09:33N 43°25' E 004°53'0 0.0
2014-Oct-20 08:33N 43°25' E 004°53'0 0.0
2014-Oct-20 07:34N 43°25' E 004°53'0 0.0
2014-Oct-20 06:34N 43°25' E 004°53'0 0.0
2014-Oct-20 05:34N 43°25' E 004°53'0 0.0
2014-Oct-20 04:33N 43°25' E 004°53'0 0.0
2014-Oct-20 03:34N 43°25' E 004°53'0 0.0
2014-Oct-20 02:34N 43°25' E 004°53'0 0.0
2014-Oct-20 01:34N 43°25' E 004°53'0 0.0
2014-Oct-20 00:34N 43°25' E 004°53'0 0.0
2014-Oct-19 23:34N 43°25' E 004°53'0 0.0
2014-Oct-19 22:34N 43°25' E 004°53'0 0.0
2014-Oct-19 21:34N 43°25' E 004°53'0 0.0
2014-Oct-19 20:33N 43°25' E 004°53'0 0.0
2014-Oct-19 19:34N 43°25' E 004°53'0 0.0
2014-Oct-19 18:34N 43°25' E 004°53'2 2.4
2014-Oct-19 17:33N 43°24' E 004°56'9 8.7
2014-Oct-19 16:33N 43°16' E 005°01'1212.1
2014-Oct-19 15:34N 43°05' E 005°08'1413.3
2014-Oct-19 14:32N 42°52' E 005°16'1212.7
2014-Oct-19 13:33N 42°41' E 005°23'1211.8
2014-Oct-19 12:34N 42°31' E 005°30'1211.8
2014-Oct-19 11:33N 42°20' E 005°38'1311.6
2014-Oct-19 10:29N 42°09' E 005°46'1111.9
2014-Oct-19 09:33N 41°59' E 005°52'1212.1
2014-Oct-19 08:33N 41°48' E 005°59'1312.1
2014-Oct-19 07:31N 41°37' E 006°07'2411.6
2014-Oct-19 05:27N 41°16' E 006°21'1011.6
2014-Oct-19 04:33N 41°06' E 006°28'5811.6
2014-Oct-18 23:33N 40°15' E 007°02'1312.3
2014-Oct-18 22:28N 40°03' E 007°09'2211.0
2014-Oct-18 20:29N 39°43' E 007°22'1612.0
2014-Oct-18 19:08N 39°29' E 007°32'1011.8
2014-Oct-18 18:17N 39°20' E 007°37'2511.7
2014-Oct-18 16:08N 38°57' E 007°52'811.7
2014-Oct-18 15:30N 38°51' E 007°56'1311.5
2014-Oct-18 14:21N 38°42' E 008°08'1012.1
2014-Oct-18 13:32N 38°37' E 008°20'1211.9
2014-Oct-18 12:33N 38°32' E 008°33'1211.8
2014-Oct-18 11:33N 38°26' E 008°46'1211.7
2014-Oct-18 10:32N 38°21' E 008°60'1111.7
2014-Oct-18 09:34N 38°16' E 009°13'1211.5
2014-Oct-18 08:32N 38°10' E 009°26'1212.4
2014-Oct-18 07:33N 38°04' E 009°40'1414.0
2014-Oct-18 06:32N 37°58' E 009°56'1211.7
2014-Oct-18 05:32N 37°53' E 010°09'1111.5
2014-Oct-18 04:33N 37°48' E 010°22'1111.2
2014-Oct-18 03:33N 37°43' E 010°35'1111.5
2014-Oct-18 02:33N 37°38' E 010°48'1211.8
2014-Oct-18 01:32N 37°32' E 011°01'1211.9
2014-Oct-18 00:33N 37°26' E 011°14'4912.0
2014-Oct-17 20:30N 36°60' E 012°05'1111.8
2014-Oct-17 19:33N 36°52' E 012°15'1211.9
2014-Oct-17 18:33N 36°43' E 012°25'1211.9
2014-Oct-17 17:33N 36°34' E 012°35'1212.0
2014-Oct-17 16:33N 36°26' E 012°45'1212.2
2014-Oct-17 15:33N 36°17' E 012°56'1211.9
2014-Oct-17 14:33N 36°08' E 013°06'1312.0
2014-Oct-17 13:30N 35°59' E 013°17'1111.9
2014-Oct-17 12:33N 35°51' E 013°26'1311.7
2014-Oct-17 11:29N 35°42' E 013°37'1111.9
2014-Oct-17 10:33N 35°34' E 013°47'1211.7
2014-Oct-17 09:33N 35°25' E 013°57'1211.8
2014-Oct-17 08:33N 35°17' E 014°07'1211.7
2014-Oct-17 07:33N 35°08' E 014°16'1212.0
2014-Oct-17 06:33N 34°60' E 014°27'1212.0
2014-Oct-17 05:33N 34°51' E 014°37'1212.0
2014-Oct-17 04:33N 34°42' E 014°47'1212.1
2014-Oct-17 03:33N 34°34' E 014°57'1211.9
2014-Oct-17 02:33N 34°25' E 015°07'1212.0
2014-Oct-17 01:33N 34°16' E 015°17'1212.0
2014-Oct-17 00:33N 34°08' E 015°27'1212.1
2014-Oct-16 23:33N 33°59' E 015°37'1312.1
2014-Oct-16 22:29N 33°49' E 015°48'1112.1
2014-Oct-16 21:33N 33°41' E 015°57'1212.1
2014-Oct-16 20:33N 33°33' E 016°07'1212.4
2014-Oct-16 19:33N 33°24' E 016°17'1211.9
2014-Oct-16 18:33N 33°15' E 016°27'1411.8
2014-Oct-16 17:23N 33°05' E 016°39'1011.8
2014-Oct-16 16:33N 32°58' E 016°47'1211.7
2014-Oct-16 15:32N 32°49' E 016°57'3911.8
2014-Oct-16 12:11N 32°21' E 017°29'711.8
2014-Oct-16 11:33N 32°15' E 017°35'149 3.3
2014-Oct-14 14:03N 30°27' E 019°34'  
Track history (hours):
 
Tides and Currents Weather Stations Pressure Air Temp Water Temp Dewpoint Dewpoint Depression Visibility Wind Speed Wind Dir Waves Ship Positions

Promitheas

Last reported at 2014-Oct-22 19:31 UTC. Time now 2014-Oct-31 21:33 UTC.
Position N 38°33' E 008°37'.
Warning: this ship's position is 9 days out of date.

Length 249 m; draft 8.2 m.

Type: Tanker. MMSI: 240547000.

Date/timePositionNaut miles runAvg speedWind from/ knotsBaromVisibWave heightAir tempDewpointWater temp
2014-Oct-22 19:31N 38°33' E 008°37'19 9.6
2014-Oct-22 17:32N 38°44' E 008°17'241 9.9
2014-Oct-21 17:08N 41°56' E 005°06'710.3
2014-Oct-21 16:27N 42°02' E 005°01'9 7.0
2014-Oct-21 15:13N 42°10' E 004°56'2 3.2
2014-Oct-21 14:33N 42°12' E 004°56'9 7.9
2014-Oct-21 13:26N 42°20' E 004°54'10 9.4
2014-Oct-21 12:23N 42°30' E 004°51'15 8.4
2014-Oct-21 10:33N 42°45' E 004°47'3 2.9
2014-Oct-21 09:33N 42°48' E 004°48'2 2.4
2014-Oct-21 08:33N 42°50' E 004°49'2 1.8
2014-Oct-21 07:25N 42°52' E 004°50'1 1.2
2014-Oct-21 06:27N 42°53' E 004°52'14 2.2
2014-Oct-21 00:11N 43°05' E 005°01'711.8
2014-Oct-20 23:33N 43°12' E 005°01'1211.9
2014-Oct-20 22:33N 43°24' E 004°56'2 1.9
2014-Oct-20 21:28N 43°25' E 004°53'0 0.0
2014-Oct-20 20:33N 43°25' E 004°53'0 0.0
2014-Oct-20 19:33N 43°25' E 004°53'0 0.0
2014-Oct-20 18:34N 43°25' E 004°53'0 0.0
2014-Oct-20 17:34N 43°25' E 004°53'0 0.0
2014-Oct-20 16:34N 43°25' E 004°53'0 0.0
2014-Oct-20 15:33N 43°25' E 004°53'0 0.0
2014-Oct-20 14:34N 43°25' E 004°53'0 0.0
2014-Oct-20 13:34N 43°25' E 004°53'0 0.0
2014-Oct-20 12:34N 43°25' E 004°53'0 0.0
2014-Oct-20 11:33N 43°25' E 004°53'0 0.0
2014-Oct-20 10:34N 43°25' E 004°53'0 0.0
2014-Oct-20 09:33N 43°25' E 004°53'0 0.0
2014-Oct-20 08:33N 43°25' E 004°53'0 0.0
2014-Oct-20 07:34N 43°25' E 004°53'0 0.0
2014-Oct-20 06:34N 43°25' E 004°53'0 0.0
2014-Oct-20 05:34N 43°25' E 004°53'0 0.0
2014-Oct-20 04:33N 43°25' E 004°53'0 0.0
2014-Oct-20 03:34N 43°25' E 004°53'0 0.0
2014-Oct-20 02:34N 43°25' E 004°53'0 0.0
2014-Oct-20 01:34N 43°25' E 004°53'0 0.0
2014-Oct-20 00:34N 43°25' E 004°53'0 0.0
2014-Oct-19 23:34N 43°25' E 004°53'0 0.0
2014-Oct-19 22:34N 43°25' E 004°53'0 0.0
2014-Oct-19 21:34N 43°25' E 004°53'0 0.0
2014-Oct-19 20:33N 43°25' E 004°53'0 0.0
2014-Oct-19 19:34N 43°25' E 004°53'0 0.0
2014-Oct-19 18:34N 43°25' E 004°53'2 2.4
2014-Oct-19 17:33N 43°24' E 004°56'9 8.7
2014-Oct-19 16:33N 43°16' E 005°01'1212.1
2014-Oct-19 15:34N 43°05' E 005°08'1413.3
2014-Oct-19 14:32N 42°52' E 005°16'1212.7
2014-Oct-19 13:33N 42°41' E 005°23'1211.8
2014-Oct-19 12:34N 42°31' E 005°30'1211.8
2014-Oct-19 11:33N 42°20' E 005°38'1311.6
2014-Oct-19 10:29N 42°09' E 005°46'1111.9
2014-Oct-19 09:33N 41°59' E 005°52'1212.1
2014-Oct-19 08:33N 41°48' E 005°59'1312.1
2014-Oct-19 07:31N 41°37' E 006°07'2411.6
2014-Oct-19 05:27N 41°16' E 006°21'1011.6
2014-Oct-19 04:33N 41°06' E 006°28'5811.6
2014-Oct-18 23:33N 40°15' E 007°02'1312.3
2014-Oct-18 22:28N 40°03' E 007°09'2211.0
2014-Oct-18 20:29N 39°43' E 007°22'1612.0
2014-Oct-18 19:08N 39°29' E 007°32'1011.8
2014-Oct-18 18:17N 39°20' E 007°37'2511.7
2014-Oct-18 16:08N 38°57' E 007°52'811.7
2014-Oct-18 15:30N 38°51' E 007°56'1311.5
2014-Oct-18 14:21N 38°42' E 008°08'1012.1
2014-Oct-18 13:32N 38°37' E 008°20'1211.9
2014-Oct-18 12:33N 38°32' E 008°33'1211.8
2014-Oct-18 11:33N 38°26' E 008°46'1211.7
2014-Oct-18 10:32N 38°21' E 008°60'1111.7
2014-Oct-18 09:34N 38°16' E 009°13'1211.5
2014-Oct-18 08:32N 38°10' E 009°26'1212.4
2014-Oct-18 07:33N 38°04' E 009°40'1414.0
2014-Oct-18 06:32N 37°58' E 009°56'1211.7
2014-Oct-18 05:32N 37°53' E 010°09'1111.5
2014-Oct-18 04:33N 37°48' E 010°22'1111.2
2014-Oct-18 03:33N 37°43' E 010°35'1111.5
2014-Oct-18 02:33N 37°38' E 010°48'1211.8
2014-Oct-18 01:32N 37°32' E 011°01'1211.9
2014-Oct-18 00:33N 37°26' E 011°14'4912.0
2014-Oct-17 20:30N 36°60' E 012°05'1111.8
2014-Oct-17 19:33N 36°52' E 012°15'1211.9
2014-Oct-17 18:33N 36°43' E 012°25'1211.9
2014-Oct-17 17:33N 36°34' E 012°35'1212.0
2014-Oct-17 16:33N 36°26' E 012°45'1212.2
2014-Oct-17 15:33N 36°17' E 012°56'1211.9
2014-Oct-17 14:33N 36°08' E 013°06'1312.0
2014-Oct-17 13:30N 35°59' E 013°17'1111.9
2014-Oct-17 12:33N 35°51' E 013°26'1311.7
2014-Oct-17 11:29N 35°42' E 013°37'1111.9
2014-Oct-17 10:33N 35°34' E 013°47'1211.7
2014-Oct-17 09:33N 35°25' E 013°57'1211.8
2014-Oct-17 08:33N 35°17' E 014°07'1211.7
2014-Oct-17 07:33N 35°08' E 014°16'1212.0
2014-Oct-17 06:33N 34°60' E 014°27'1212.0
2014-Oct-17 05:33N 34°51' E 014°37'1212.0
2014-Oct-17 04:33N 34°42' E 014°47'1212.1
2014-Oct-17 03:33N 34°34' E 014°57'1211.9
2014-Oct-17 02:33N 34°25' E 015°07'1212.0
2014-Oct-17 01:33N 34°16' E 015°17'1212.0
2014-Oct-17 00:33N 34°08' E 015°27'1212.1
2014-Oct-16 23:33N 33°59' E 015°37'1312.1
2014-Oct-16 22:29N 33°49' E 015°48'1112.1
2014-Oct-16 21:33N 33°41' E 015°57'1212.1
2014-Oct-16 20:33N 33°33' E 016°07'1212.4
2014-Oct-16 19:33N 33°24' E 016°17'1211.9
2014-Oct-16 18:33N 33°15' E 016°27'1411.8
2014-Oct-16 17:23N 33°05' E 016°39'1011.8
2014-Oct-16 16:33N 32°58' E 016°47'1211.7
2014-Oct-16 15:32N 32°49' E 016°57'3911.8
2014-Oct-16 12:11N 32°21' E 017°29'711.8
2014-Oct-16 11:33N 32°15' E 017°35'149 3.3
2014-Oct-14 14:03N 30°27' E 019°34'  

Dump ship's entire track history